Big Bear Station Historical Data
Daily Summary for February 26, 2019 Units:  English    Metric   Both
Next Day »
Daily Weekly Monthly Yearly Custom
  High: Low: Average:
Temperature: 49.1 °F 21.2 °F 34.4 °F
Dew Point: 32.3 °F 11.4 °F 23.5 °F
Humidity: 89% 32% 67%
Wind Speed: 5.8mph 0.0mph 1mph
Wind Gust: -999.0mph - -
Wind- - West
Pressure: 23.52 in 23.45 in -
Precipitation: 0.00 in    
Historical Graphs
 
 
Tabular Data for February 26, 2019
Time Temperature Dew Point Pressure Wind Wind Speed Wind Gust Humidity Rainfall Rate (Hourly)
00:03 23.7 °F 20.1 °F 23.50 in Calm   -999.0 mph 86% 0.00 in
00:19 23.7 °F 19.3 °F 23.49 in Calm   -999.0 mph 83% 0.00 in
00:34 23.4 °F 19.6 °F 23.49 in Calm   -999.0 mph 85% 0.00 in
00:49 23.5 °F 18.5 °F 23.49 in Calm   -999.0 mph 81% 0.00 in
01:04 23.0 °F 18.6 °F 23.49 in Calm   -999.0 mph 83% 0.00 in
01:19 22.6 °F 18.8 °F 23.49 in Calm   -999.0 mph 85% 0.00 in
01:35 22.5 °F 19.5 °F 23.49 in Calm   -999.0 mph 88% 0.00 in
01:50 22.3 °F 19.0 °F 23.49 in Calm   -999.0 mph 87% 0.00 in
02:05 22.1 °F 19.1 °F 23.48 in Calm   -999.0 mph 88% 0.00 in
02:20 23.2 °F 19.6 °F 23.48 in Calm   -999.0 mph 86% 0.00 in
02:35 21.9 °F 18.6 °F 23.48 in Calm   -999.0 mph 87% 0.00 in
02:51 21.4 °F 18.4 °F 23.48 in Calm   -999.0 mph 88% 0.00 in
03:06 22.5 °F 18.9 °F 23.48 in Calm   -999.0 mph 86% 0.00 in
03:21 21.4 °F 18.4 °F 23.48 in Calm   -999.0 mph 88% 0.00 in
03:36 21.4 °F 18.7 °F 23.48 in Calm   -999.0 mph 89% 0.00 in
03:51 22.1 °F 19.1 °F 23.47 in Calm   -999.0 mph 88% 0.00 in
04:07 21.7 °F 18.2 °F 23.48 in Calm   -999.0 mph 86% 0.00 in
04:22 21.9 °F 18.1 °F 23.48 in Calm   -999.0 mph 85% 0.00 in
04:37 21.2 °F 17.4 °F 23.48 in Calm   -999.0 mph 85% 0.00 in
04:52 21.7 °F 17.6 °F 23.49 in Calm   -999.0 mph 84% 0.00 in
05:08 21.4 °F 17.6 °F 23.49 in Calm   -999.0 mph 85% 0.00 in
05:23 22.3 °F 17.6 °F 23.49 in Calm   -999.0 mph 82% 0.00 in
05:38 21.2 °F 16.8 °F 23.49 in Calm   -999.0 mph 83% 0.00 in
05:53 21.9 °F 18.1 °F 23.48 in Calm   -999.0 mph 85% 0.00 in
06:08 21.6 °F 16.7 °F 23.48 in Calm   -999.0 mph 81% 0.00 in
06:24 21.6 °F 17.2 °F 23.48 in Calm   -999.0 mph 83% 0.00 in
06:39 21.4 °F 17.3 °F 23.49 in Calm   -999.0 mph 84% 0.00 in
06:54 21.9 °F 18.4 °F 23.50 in Calm   -999.0 mph 86% 0.00 in
07:09 22.1 °F 17.7 °F 23.50 in Calm   -999.0 mph 83% 0.00 in
07:24 22.5 °F 17.6 °F 23.50 in Calm   -999.0 mph 81% 0.00 in
07:40 23.7 °F 18.1 °F 23.49 in Calm   -999.0 mph 79% 0.00 in
07:55 27.3 °F 19.5 °F 23.50 in Calm   -999.0 mph 72% 0.00 in
08:10 29.3 °F 20.0 °F 23.50 in Calm   -999.0 mph 68% 0.00 in
08:25 33.8 °F 19.8 °F 23.50 in NNW 1.7 mph -999.0 mph 56% 0.00 in
08:40 38.1 °F 19.6 °F 23.50 in Calm   -999.0 mph 47% 0.00 in
08:56 42.1 °F 20.1 °F 23.50 in NW 2.7 mph -999.0 mph 41% 0.00 in
09:11 43.9 °F 19.9 °F 23.50 in NW 1.1 mph -999.0 mph 38% 0.00 in
09:26 45.5 °F 21.3 °F 23.51 in ESE 2.7 mph -999.0 mph 38% 0.00 in
09:41 46.0 °F 19.9 °F 23.51 in Calm   -999.0 mph 35% 0.00 in
09:57 46.2 °F 20.7 °F 23.51 in Calm   -999.0 mph 36% 0.00 in
10:12 46.4 °F 22.2 °F 23.51 in Calm   -999.0 mph 38% 0.00 in
10:27 47.5 °F 21.2 °F 23.51 in NW 3.7 mph -999.0 mph 35% 0.00 in
10:42 48.9 °F 20.3 °F 23.52 in WNW 2.7 mph -999.0 mph 32% 0.00 in
10:57 49.1 °F 21.2 °F 23.52 in Calm   -999.0 mph 33% 0.00 in
11:13 47.3 °F 21.7 °F 23.51 in South 2.2 mph -999.0 mph 36% 0.00 in
11:28 47.5 °F 21.9 °F 23.51 in NW 3.2 mph -999.0 mph 36% 0.00 in
11:43 46.6 °F 21.1 °F 23.50 in NNW 1.7 mph -999.0 mph 36% 0.00 in
11:58 48.4 °F 24.6 °F 23.50 in West 4.7 mph -999.0 mph 39% 0.00 in
12:13 45.5 °F 23.7 °F 23.50 in ESE 3.2 mph -999.0 mph 42% 0.00 in
12:29 45.9 °F 26.8 °F 23.49 in NNW 3.7 mph -999.0 mph 47% 0.00 in
12:44 46.0 °F 27.9 °F 23.49 in NNW 1.7 mph -999.0 mph 49% 0.00 in
12:59 44.1 °F 28.5 °F 23.49 in Calm   -999.0 mph 54% 0.00 in
13:15 44.4 °F 28.8 °F 23.48 in NNW 3.2 mph -999.0 mph 54% 0.00 in
13:30 45.1 °F 28.5 °F 23.47 in SW 1.1 mph -999.0 mph 52% 0.00 in
13:45 46.4 °F 26.2 °F 23.47 in ESE 1.1 mph -999.0 mph 45% 0.00 in
14:00 46.0 °F 26.9 °F 23.47 in ESE 3.2 mph -999.0 mph 47% 0.00 in
14:16 45.5 °F 29.4 °F 23.46 in NW 3.7 mph -999.0 mph 53% 0.00 in
14:31 45.5 °F 30.7 °F 23.46 in West 2.2 mph -999.0 mph 56% 0.00 in
14:47 44.2 °F 29.9 °F 23.46 in Calm   -999.0 mph 57% 0.00 in
15:02 45.0 °F 31.1 °F 23.46 in Calm   -999.0 mph 58% 0.00 in
15:17 44.1 °F 30.7 °F 23.46 in Calm   -999.0 mph 59% 0.00 in
15:33 43.7 °F 31.1 °F 23.45 in Calm   -999.0 mph 61% 0.00 in
15:48 42.4 °F 30.3 °F 23.46 in Calm   -999.0 mph 62% 0.00 in
16:03 42.1 °F 31.2 °F 23.46 in Calm   -999.0 mph 65% 0.00 in
16:18 41.4 °F 31.6 °F 23.45 in Calm   -999.0 mph 68% 0.00 in
16:33 41.2 °F 31.8 °F 23.46 in Calm   -999.0 mph 69% 0.00 in
16:49 41.7 °F 31.9 °F 23.45 in Calm   -999.0 mph 68% 0.00 in
17:04 39.9 °F 32.3 °F 23.45 in WNW 2.7 mph -999.0 mph 74% 0.00 in
17:19 39.4 °F 32.1 °F 23.45 in Calm   -999.0 mph 75% 0.00 in
17:35 38.5 °F 31.3 °F 23.45 in Calm   -999.0 mph 75% 0.00 in
17:50 37.8 °F 30.9 °F 23.45 in Calm   -999.0 mph 76% 0.00 in
18:05 37.2 °F 31.0 °F 23.46 in Calm   -999.0 mph 78% 0.00 in
18:21 37.0 °F 31.1 °F 23.45 in West 1.1 mph -999.0 mph 79% 0.00 in
18:36 36.7 °F 30.2 °F 23.46 in North 3.2 mph -999.0 mph 77% 0.00 in
18:51 36.5 °F 30.3 °F 23.46 in SE 3.7 mph -999.0 mph 78% 0.00 in
19:06 36.1 °F 30.2 °F 23.46 in NW 2.2 mph -999.0 mph 79% 0.00 in
19:21 36.0 °F 29.8 °F 23.47 in WNW 5.8 mph -999.0 mph 78% 0.00 in
19:37 36.1 °F 28.9 °F 23.47 in Calm   -999.0 mph 75% 0.00 in
19:52 36.3 °F 28.1 °F 23.47 in Calm   -999.0 mph 72% 0.00 in
20:08 36.1 °F 28.9 °F 23.47 in NW 1.7 mph -999.0 mph 75% 0.00 in
20:23 36.0 °F 29.5 °F 23.47 in Calm   -999.0 mph 77% 0.00 in
20:38 36.0 °F 28.2 °F 23.47 in WNW 3.2 mph -999.0 mph 73% 0.00 in
20:53 36.0 °F 29.2 °F 23.47 in SSW 1.1 mph -999.0 mph 76% 0.00 in
21:09 35.8 °F 29.9 °F 23.47 in NE 3.2 mph -999.0 mph 79% 0.00 in
21:24 35.8 °F 29.0 °F 23.47 in WSW 3.2 mph -999.0 mph 76% 0.00 in
21:39 36.1 °F 25.5 °F 23.47 in South 2.7 mph -999.0 mph 65% 0.00 in
21:55 35.6 °F 26.8 °F 23.47 in NNW 1.7 mph -999.0 mph 70% 0.00 in
22:10 34.9 °F 27.8 °F 23.47 in Calm   -999.0 mph 75% 0.00 in
22:25 34.2 °F 25.4 °F 23.47 in WNW 1.7 mph -999.0 mph 70% 0.00 in
22:40 33.4 °F 27.0 °F 23.47 in NW 4.7 mph -999.0 mph 77% 0.00 in
22:56 33.6 °F 24.2 °F 23.47 in NW 5.8 mph -999.0 mph 68% 0.00 in
23:11 34.5 °F 15.3 °F 23.47 in Calm   -999.0 mph 45% 0.00 in
23:27 34.3 °F 15.6 °F 23.48 in SW 1.7 mph -999.0 mph 46% 0.00 in
23:42 34.3 °F 12.5 °F 23.48 in Calm   -999.0 mph 40% 0.00 in
23:57 33.8 °F 11.4 °F 23.48 in Calm   -999.0 mph 39% 0.00 in
Big Bear CA Weather